Time;durP1;ratioP1;P1;durP2;ratioP2;P2;SDS_P1;SDS_P2;PMS_P1;PMS_P2;Temp;Humidity;BMP_temperature;BMP_pressure;BME280_temperature;BME280_humidity;BME280_pressure;Samples;Min_cycle;Max_cycle;Signal;HPM_P1;HPM_P2
2023/10/07 00:01:24;;;;;;;12.05;7.20;;;15.80;96.10;;;;;;4231170;28;20131;-57
2023/10/07 00:03:29;;;;;;;16.38;7.78;;;15.80;96.20;;;;;;4231595;28;20465;-57
2023/10/07 00:05:38;;;;;;;12.45;7.05;;;15.80;96.10;;;;;;4230947;28;20097;-58
2023/10/07 00:07:44;;;;;;;12.45;6.93;;;15.80;96.30;;;;;;4230609;28;20039;-58
2023/10/07 00:09:50;;;;;;;11.50;7.13;;;15.70;96.20;;;;;;4230863;28;20048;-60
2023/10/07 00:11:52;;;;;;;12.18;7.10;;;15.70;96.20;;;;;;4231666;28;20047;-58
2023/10/07 00:13:56;;;;;;;14.55;7.60;;;15.70;96.20;;;;;;4230163;28;20127;-57
2023/10/07 00:16:00;;;;;;;14.13;7.45;;;15.70;96.40;;;;;;4230509;28;20042;-56
2023/10/07 00:18:11;;;;;;;15.95;7.53;;;15.60;96.30;;;;;;4225307;28;20039;-56
2023/10/07 00:20:18;;;;;;;14.32;7.57;;;15.60;96.40;;;;;;4230245;28;20054;-58
2023/10/07 00:22:20;;;;;;;17.77;8.15;;;15.60;96.50;;;;;;4230344;28;20334;-56
2023/10/07 00:24:25;;;;;;;17.50;8.18;;;15.50;96.40;;;;;;4230110;28;20130;-56
2023/10/07 00:26:31;;;;;;;17.33;7.65;;;15.50;96.20;;;;;;4230279;28;20044;-56
2023/10/07 00:28:35;;;;;;;13.80;7.78;;;15.40;96.50;;;;;;4230931;28;20047;-56
2023/10/07 00:30:38;;;;;;;12.35;7.22;;;15.40;96.50;;;;;;4233522;28;20499;-56
2023/10/07 00:32:41;;;;;;;16.88;7.53;;;15.30;96.50;;;;;;4233069;28;20048;-56
2023/10/07 00:34:44;;;;;;;13.90;8.10;;;15.30;96.50;;;;;;4229802;28;20040;-56
2023/10/07 00:36:47;;;;;;;12.60;7.47;;;15.30;96.60;;;;;;4233669;27;20051;-56
2023/10/07 00:38:54;;;;;;;11.93;6.68;;;15.30;96.70;;;;;;4232606;28;20077;-59
2023/10/07 00:40:56;;;;;;;12.50;7.57;;;15.30;96.60;;;;;;4232954;28;20039;-58
2023/10/07 00:43:06;;;;;;;18.55;7.07;;;15.20;96.70;;;;;;4233158;28;20122;-58
2023/10/07 00:45:14;;;;;;;14.32;6.90;;;15.20;96.80;;;;;;4230422;28;20444;-58
2023/10/07 00:47:19;;;;;;;17.20;7.97;;;15.20;96.90;;;;;;4233234;28;20127;-58
2023/10/07 00:49:23;;;;;;;11.95;6.78;;;15.20;96.80;;;;;;4232970;28;20051;-57
2023/10/07 00:51:35;;;;;;;12.40;6.60;;;15.20;96.90;;;;;;4231833;28;20139;-56
2023/10/07 00:53:45;;;;;;;15.82;7.55;;;15.20;96.90;;;;;;4237479;27;20047;-56
2023/10/07 00:55:52;;;;;;;13.60;7.28;;;15.10;96.90;;;;;;4238795;27;20049;-58
2023/10/07 00:58:04;;;;;;;13.48;6.97;;;15.10;96.90;;;;;;4249977;27;20120;-59
2023/10/07 01:02:32;;;;;;;12.38;6.97;;;15.10;97.00;;;;;;4233012;28;20044;-56
2023/10/07 01:04:40;;;;;;;15.88;7.15;;;15.00;97.10;;;;;;4241930;27;20039;-56
2023/10/07 01:06:47;;;;;;;13.73;6.35;;;15.00;97.20;;;;;;4249592;27;20407;-56
2023/10/07 01:09:10;;;;;;;11.25;6.45;;;15.10;97.30;;;;;;4249824;27;20054;-56
2023/10/07 01:13:29;;;;;;;14.80;6.97;;;15.10;97.30;;;;;;4249925;27;20067;-57
2023/10/07 01:15:35;;;;;;;12.60;6.97;;;15.10;97.30;;;;;;4249882;27;20054;-56
2023/10/07 01:17:40;;;;;;;;;;;15.10;97.20;;;;;;4239600;27;20447;-56
2023/10/07 01:19:51;;;;;;;15.93;6.20;;;15.10;96.90;;;;;;4238498;27;19923;-57
2023/10/07 01:21:55;;;;;;;13.15;6.53;;;15.00;97.20;;;;;;4249449;27;20039;-57
2023/10/07 01:23:59;;;;;;;10.85;5.68;;;15.00;97.00;;;;;;4249782;27;20043;-57
2023/10/07 01:26:14;;;;;;;13.25;6.38;;;15.10;97.00;;;;;;4249451;27;20051;-61
2023/10/07 01:28:16;;;;;;;14.10;7.22;;;15.10;97.00;;;;;;4232618;28;20043;-58
2023/10/07 01:30:29;;;;;;;12.52;6.32;;;15.10;97.10;;;;;;4241190;27;20128;-58
2023/10/07 01:32:33;;;;;;;13.98;6.93;;;15.10;97.10;;;;;;4249873;27;20425;-57
2023/10/07 01:34:36;;;;;;;14.18;6.40;;;15.00;97.10;;;;;;4249637;27;20058;-56
2023/10/07 01:36:45;;;;;;;12.82;6.55;;;15.00;97.20;;;;;;4249626;27;20046;-56
2023/10/07 01:38:53;;;;;;;15.05;6.32;;;15.00;97.10;;;;;;4248316;27;20073;-58
2023/10/07 01:41:05;;;;;;;12.32;6.70;;;15.00;97.20;;;;;;4248212;27;20039;-57
2023/10/07 01:43:12;;;;;;;13.30;6.88;;;15.00;97.10;;;;;;4249348;27;20080;-59
2023/10/07 01:45:22;;;;;;;11.45;6.38;;;15.00;97.30;;;;;;4249146;27;20050;-60
2023/10/07 01:47:29;;;;;;;9.98;5.68;;;15.00;97.20;;;;;;4249796;27;20039;-60
2023/10/07 01:49:39;;;;;;;14.05;6.57;;;15.00;97.30;;;;;;4249754;27;20039;-60
2023/10/07 01:51:44;;;;;;;14.32;6.22;;;15.00;97.50;;;;;;4256191;27;20515;-59
2023/10/07 01:53:47;;;;;;;12.30;6.53;;;15.00;97.40;;;;;;4267665;27;20042;-59
2023/10/07 01:55:51;;;;;;;11.98;6.40;;;15.00;97.50;;;;;;4267421;27;20043;-57
2023/10/07 01:57:56;;;;;;;12.90;6.47;;;15.00;97.50;;;;;;4255538;27;20041;-58
2023/10/07 02:00:07;;;;;;;10.52;5.72;;;15.00;97.60;;;;;;4266225;27;20074;-60
2023/10/07 02:02:11;;;;;;;14.25;6.78;;;15.00;97.70;;;;;;4266177;27;20433;-59
2023/10/07 02:04:26;;;;;;;16.33;6.70;;;15.00;97.50;;;;;;4266313;27;20099;-59
2023/10/07 02:06:29;;;;;;;14.13;6.40;;;15.00;97.40;;;;;;4266351;27;20055;-57
2023/10/07 02:08:31;;;;;;;11.30;6.43;;;15.10;97.30;;;;;;4267281;27;20050;-57
2023/10/07 02:10:33;;;;;;;15.38;6.75;;;15.00;97.20;;;;;;4267306;27;20047;-57
2023/10/07 02:12:35;;;;;;;11.77;6.30;;;15.00;97.10;;;;;;4267399;27;20510;-63
2023/10/07 02:14:39;;;;;;;13.25;6.60;;;15.00;97.20;;;;;;4267383;27;20047;-66
2023/10/07 02:16:41;;;;;;;11.75;6.75;;;15.00;97.00;;;;;;4265123;27;20404;-59
2023/10/07 02:18:48;;;;;;;11.23;6.20;;;15.00;97.10;;;;;;4266561;27;20054;-56
2023/10/07 02:23:40;;;;;;;11.73;5.88;;;15.10;97.20;;;;;;4195853;28;20045;-59
2023/10/07 02:25:43;;;;;;;13.70;6.70;;;15.00;97.40;;;;;;4196002;28;20562;-61
2023/10/07 02:27:48;;;;;;;10.73;6.53;;;15.00;97.60;;;;;;4195564;28;20391;-59
2023/10/07 02:29:53;;;;;;;13.02;6.07;;;14.90;97.40;;;;;;4195839;28;20152;-60
2023/10/07 02:34:33;;;;;;;10.57;5.55;;;15.00;97.50;;;;;;4130400;28;20065;-63
2023/10/07 02:36:37;;;;;;;15.60;6.95;;;14.90;97.70;;;;;;4130589;28;20050;-57
2023/10/07 02:38:42;;;;;;;13.07;6.28;;;15.00;97.70;;;;;;4134381;28;20415;-56
2023/10/07 02:40:50;;;;;;;11.30;5.95;;;14.90;97.60;;;;;;4146322;28;20124;-57
2023/10/07 02:42:54;;;;;;;17.27;6.93;;;14.90;97.80;;;;;;4141211;28;20382;-57
2023/10/07 02:45:39;;;;;;;13.98;6.93;;;14.80;97.80;;;;;;4139715;28;20522;-57
2023/10/07 02:47:31;;;;;;;13.32;6.57;;;14.80;98.00;;;;;;4144834;28;20505;-56
2023/10/07 02:49:34;;;;;;;16.27;6.82;;;14.80;98.00;;;;;;4134888;28;20169;-56
2023/10/07 02:51:39;;;;;;;12.65;5.95;;;14.70;98.10;;;;;;4145483;28;20507;-59
2023/10/07 02:53:42;;;;;;;15.32;6.05;;;14.80;98.20;;;;;;4137152;28;20053;-60
2023/10/07 02:55:47;;;;;;;13.68;6.80;;;14.80;98.10;;;;;;4143026;28;20610;-59
2023/10/07 02:57:55;;;;;;;15.52;6.88;;;14.80;98.20;;;;;;4161240;28;20049;-58
2023/10/07 03:00:11;;;;;;;12.90;6.70;;;14.70;98.20;;;;;;4178766;28;20055;-59
2023/10/07 03:02:19;;;;;;;12.55;6.53;;;14.70;98.40;;;;;;4178987;28;20487;-59
2023/10/07 03:04:22;;;;;;;14.68;6.43;;;14.60;98.30;;;;;;4174605;28;20084;-59
2023/10/07 03:06:28;;;;;;;11.68;6.32;;;14.60;98.40;;;;;;4162781;28;20218;-59
2023/10/07 03:08:42;;;;;;;16.13;7.00;;;14.60;98.40;;;;;;4166199;28;20123;-59
2023/10/07 03:10:44;;;;;;;12.70;5.50;;;14.50;98.50;;;;;;4205554;28;20468;-58
2023/10/07 03:12:56;;;;;;;12.00;6.00;;;14.50;98.60;;;;;;4231930;28;20043;-59
2023/10/07 03:15:20;;;;;;;12.13;6.90;;;14.50;98.50;;;;;;4231600;28;20044;-59
2023/10/07 03:17:33;;;;;;;10.82;6.18;;;14.50;98.40;;;;;;4224006;28;20052;-60
2023/10/07 03:19:56;;;;;;;18.08;6.25;;;14.50;98.50;;;;;;4227776;28;20078;-58
2023/10/07 03:22:09;;;;;;;10.45;5.38;;;14.50;98.50;;;;;;4231229;28;20094;-55
2023/10/07 03:24:13;;;;;;;16.00;6.20;;;14.50;98.60;;;;;;4230504;28;20117;-57
2023/10/07 03:26:19;;;;;;;14.40;5.63;;;14.60;98.60;;;;;;4230856;28;20089;-59
2023/10/07 03:28:23;;;;;;;10.60;5.45;;;14.50;98.50;;;;;;4230733;28;20044;-59
2023/10/07 03:30:27;;;;;;;10.48;5.47;;;14.50;98.70;;;;;;4229457;28;20423;-59
2023/10/07 03:32:54;;;;;;;14.02;5.95;;;14.50;98.60;;;;;;4230620;28;20044;-59
2023/10/07 03:34:56;;;;;;;11.13;6.10;;;14.50;98.60;;;;;;4230806;28;20039;-57
2023/10/07 03:39:22;;;;;;;12.57;5.63;;;14.50;98.70;;;;;;4233087;28;20086;-57
2023/10/07 03:41:24;;;;;;;10.38;5.43;;;14.50;98.80;;;;;;4220743;28;20047;-58
2023/10/07 03:43:34;;;;;;;11.10;5.40;;;14.50;99.00;;;;;;4230823;28;20043;-58
2023/10/07 03:45:39;;;;;;;11.93;5.93;;;14.50;98.90;;;;;;4230368;28;20051;-59
2023/10/07 03:47:46;;;;;;;14.07;5.65;;;14.50;99.00;;;;;;4230215;28;20051;-59
2023/10/07 03:49:58;;;;;;;10.35;6.05;;;14.50;99.00;;;;;;4230282;28;20071;-58
2023/10/07 03:52:07;;;;;;;10.98;5.80;;;14.50;99.00;;;;;;4250334;27;20393;-60
2023/10/07 03:54:15;;;;;;;14.02;5.93;;;14.50;99.00;;;;;;4264907;27;20430;-60
2023/10/07 03:56:20;;;;;;;10.65;5.82;;;14.50;99.00;;;;;;4263549;27;20051;-59
2023/10/07 03:58:23;;;;;;;15.23;6.03;;;14.60;98.90;;;;;;4264856;27;20099;-57
2023/10/07 04:00:33;;;;;;;12.60;6.22;;;14.60;99.00;;;;;;4264621;27;20039;-58
2023/10/07 04:02:41;;;;;;;11.25;6.07;;;14.60;98.80;;;;;;4264880;27;20057;-57
2023/10/07 04:04:43;;;;;;;10.82;5.82;;;14.70;98.80;;;;;;4267744;27;20055;-59
2023/10/07 04:06:47;;;;;;;13.15;6.45;;;14.70;98.80;;;;;;4267975;27;20057;-57
2023/10/07 04:08:53;;;;;;;11.32;5.90;;;14.70;98.70;;;;;;4268199;27;20122;-58
2023/10/07 04:10:55;;;;;;;12.45;5.28;;;14.70;98.80;;;;;;4267732;27;20043;-57
2023/10/07 04:12:58;;;;;;;14.75;6.80;;;14.60;98.70;;;;;;4267860;27;20050;-57
2023/10/07 04:15:02;;;;;;;10.27;5.85;;;14.60;98.90;;;;;;4267115;27;20053;-57
2023/10/07 04:17:06;;;;;;;15.25;6.93;;;14.70;98.60;;;;;;4260158;27;20127;-58
2023/10/07 04:19:30;;;;;;;10.07;5.55;;;14.60;98.70;;;;;;4268195;27;20046;-57
2023/10/07 04:21:32;;;;;;;12.38;6.38;;;14.60;98.80;;;;;;4267555;27;20051;-58
2023/10/07 04:23:34;;;;;;;12.43;6.35;;;14.60;98.70;;;;;;4267797;27;20053;-57
2023/10/07 04:25:43;;;;;;;11.73;5.80;;;14.60;98.80;;;;;;4267438;27;20047;-57
2023/10/07 04:27:45;;;;;;;15.75;6.15;;;14.60;98.80;;;;;;4268027;27;20235;-57
2023/10/07 04:29:51;;;;;;;11.00;5.97;;;14.60;98.80;;;;;;4267414;27;20053;-57
2023/10/07 04:31:54;;;;;;;12.40;5.90;;;14.50;98.80;;;;;;4267402;27;20050;-57
2023/10/07 04:34:02;;;;;;;13.05;5.82;;;14.50;98.90;;;;;;4267762;27;20122;-57
2023/10/07 04:36:11;;;;;;;12.13;6.72;;;14.50;98.90;;;;;;4267477;27;20039;-58
2023/10/07 04:38:58;;;;;;;11.18;5.93;;;14.50;98.90;;;;;;4256399;27;20047;-57
2023/10/07 04:41:30;;;;;;;11.15;6.50;;;14.50;99.10;;;;;;4250174;27;20565;-57
2023/10/07 04:43:36;;;;;;;11.80;6.05;;;14.50;99.20;;;;;;4267386;27;20120;-58
2023/10/07 04:45:49;;;;;;;11.02;5.65;;;14.40;99.20;;;;;;4267313;27;20047;-56
2023/10/07 04:47:57;;;;;;;9.82;5.45;;;14.40;99.20;;;;;;4267129;27;20536;-57
2023/10/07 04:52:07;;;;;;;18.25;7.40;;;14.50;99.20;;;;;;4258059;27;20236;-56
2023/10/07 04:54:10;;;;;;;27.73;7.55;;;14.50;99.10;;;;;;4267202;27;20039;-58
2023/10/07 04:56:20;;;;;;;16.80;6.78;;;14.50;99.10;;;;;;4266441;27;20108;-57
2023/10/07 04:58:24;;;;;;;16.60;6.75;;;14.50;99.10;;;;;;4248079;27;20093;-57
2023/10/07 05:02:34;;;;;;;18.23;6.68;;;14.50;99.10;;;;;;4266975;27;20066;-57
2023/10/07 05:04:39;;;;;;;17.15;6.82;;;14.50;99.10;;;;;;4267357;27;20074;-57
2023/10/07 05:06:43;;;;;;;13.85;7.30;;;14.50;99.20;;;;;;4266697;27;20042;-57
2023/10/07 05:08:46;;;;;;;12.38;5.22;;;14.50;99.20;;;;;;4266805;27;20096;-57
2023/10/07 05:11:04;;;;;;;11.95;6.68;;;14.50;99.20;;;;;;4266684;27;20087;-57
2023/10/07 05:13:07;;;;;;;13.93;6.05;;;14.50;99.20;;;;;;4266342;27;20080;-57
2023/10/07 05:15:10;;;;;;;11.05;5.78;;;14.40;99.20;;;;;;4266577;27;20049;-57
2023/10/07 05:17:12;;;;;;;14.13;5.75;;;14.40;99.40;;;;;;4266782;27;20121;-57
2023/10/07 05:19:19;;;;;;;11.73;6.35;;;14.40;99.40;;;;;;4248507;27;20073;-57
2023/10/07 05:21:26;;;;;;;15.00;6.07;;;14.40;99.40;;;;;;4267975;27;20050;-62
2023/10/07 05:23:28;;;;;;;10.38;5.97;;;14.50;99.50;;;;;;4268070;27;20043;-59
2023/10/07 05:25:35;;;;;;;13.32;6.40;;;14.50;99.60;;;;;;4267278;27;20153;-59
2023/10/07 05:27:40;;;;;;;17.63;7.55;;;14.50;99.80;;;;;;4267191;27;20095;-56
2023/10/07 05:29:43;;;;;;;14.63;6.93;;;14.40;99.70;;;;;;4267765;27;20480;-63
2023/10/07 05:31:45;;;;;;;15.30;6.20;;;14.40;99.80;;;;;;4268071;27;20498;-56
2023/10/07 05:33:48;;;;;;;12.68;6.50;;;14.40;99.80;;;;;;4249327;27;20446;-57
2023/10/07 05:35:50;;;;;;;13.25;6.65;;;14.40;99.80;;;;;;4267070;27;20054;-57
2023/10/07 05:37:52;;;;;;;11.80;5.22;;;14.40;99.80;;;;;;4266522;27;20058;-57
2023/10/07 05:39:54;;;;;;;16.48;6.00;;;14.40;99.90;;;;;;4266036;27;20054;-58
2023/10/07 05:41:58;;;;;;;14.65;6.10;;;14.40;99.90;;;;;;4266832;27;20134;-57
2023/10/07 05:44:03;;;;;;;14.73;6.18;;;14.40;99.90;;;;;;4266103;27;20035;-57
2023/10/07 05:46:05;;;;;;;12.13;6.22;;;14.30;99.80;;;;;;4266422;27;20070;-58
2023/10/07 05:48:10;;;;;;;17.35;7.00;;;14.30;99.90;;;;;;4266094;27;20463;-58
2023/10/07 05:50:12;;;;;;;;;;;14.30;99.90;;;;;;4263374;27;20085;-57
2023/10/07 05:52:14;;;;;;;14.70;6.38;;;14.30;99.90;;;;;;4266170;27;19925;-57
2023/10/07 05:54:19;;;;;;;12.30;5.88;;;14.20;99.90;;;;;;4266354;27;20141;-57
2023/10/07 05:56:22;;;;;;;;;;;14.30;99.90;;;;;;4267017;27;20196;-57
2023/10/07 05:58:27;;;;;;;10.75;6.22;;;14.30;99.90;;;;;;4265966;27;19923;-57
2023/10/07 06:00:31;;;;;;;11.93;6.30;;;14.30;99.90;;;;;;4265989;27;20053;-57
2023/10/07 06:02:34;;;;;;;10.73;5.82;;;14.30;99.90;;;;;;4266099;27;20039;-57
2023/10/07 06:04:36;;;;;;;13.80;6.63;;;14.40;99.90;;;;;;4266027;27;20034;-58
2023/10/07 06:06:42;;;;;;;13.75;7.13;;;14.30;99.90;;;;;;4266034;27;20073;-59
2023/10/07 06:08:44;;;;;;;15.38;7.45;;;14.30;99.90;;;;;;4265817;27;20126;-57
2023/10/07 06:10:51;;;;;;;13.85;6.68;;;14.30;99.90;;;;;;4265703;27;20038;-58
2023/10/07 06:12:54;;;;;;;13.18;6.80;;;14.30;99.90;;;;;;4265774;27;20046;-57
2023/10/07 06:14:57;;;;;;;18.55;7.50;;;14.30;99.90;;;;;;4265593;27;20047;-57
2023/10/07 06:16:59;;;;;;;12.40;7.05;;;14.30;99.90;;;;;;4265928;27;20066;-56
2023/10/07 06:19:02;;;;;;;11.02;6.25;;;14.30;99.90;;;;;;4265778;27;20043;-56
2023/10/07 06:21:19;;;;;;;13.60;6.97;;;14.30;99.90;;;;;;4264648;27;20096;-57
2023/10/07 06:23:25;;;;;;;14.35;6.35;;;14.40;99.90;;;;;;4265741;27;20038;-57
2023/10/07 06:25:33;;;;;;;14.85;7.15;;;14.40;99.90;;;;;;4265450;27;20373;-57
2023/10/07 06:27:37;;;;;;;13.68;6.50;;;14.40;99.90;;;;;;4264801;27;20057;-60
2023/10/07 06:29:45;;;;;;;14.77;6.32;;;14.40;99.90;;;;;;4265517;27;20062;-57
2023/10/07 06:31:55;;;;;;;11.38;6.63;;;14.40;99.90;;;;;;4265250;27;20168;-56
2023/10/07 06:34:03;;;;;;;12.82;6.13;;;14.50;99.90;;;;;;4265653;27;20078;-56
2023/10/07 06:36:10;;;;;;;13.65;6.72;;;14.50;99.90;;;;;;4265674;27;20054;-57
2023/10/07 06:38:19;;;;;;;14.32;6.63;;;14.50;99.90;;;;;;4265558;27;20047;-57
2023/10/07 06:40:25;;;;;;;17.35;6.97;;;14.50;99.90;;;;;;4264858;27;20038;-57
2023/10/07 06:42:27;;;;;;;13.68;6.28;;;14.50;99.90;;;;;;4265393;27;20053;-55
2023/10/07 06:44:30;;;;;;;16.95;6.65;;;14.50;99.90;;;;;;4265720;27;20042;-57
2023/10/07 06:46:40;;;;;;;17.30;7.97;;;14.50;99.90;;;;;;4265240;27;20092;-57
2023/10/07 06:48:45;;;;;;;20.58;7.75;;;14.60;99.90;;;;;;4265285;27;20121;-57
2023/10/07 06:50:52;;;;;;;11.85;6.05;;;14.70;99.90;;;;;;4265067;27;20042;-57
2023/10/07 06:52:57;;;;;;;21.33;7.35;;;14.70;99.90;;;;;;4264971;27;20468;-57
2023/10/07 06:55:02;;;;;;;18.55;7.30;;;14.70;99.90;;;;;;4265245;27;20047;-56
2023/10/07 06:57:11;;;;;;;19.67;7.10;;;14.80;99.80;;;;;;4247925;27;20145;-56
2023/10/07 06:59:15;;;;;;;26.02;7.70;;;14.90;99.70;;;;;;4248415;27;20047;-56
2023/10/07 07:01:22;;;;;;;19.60;7.00;;;14.90;99.60;;;;;;4255869;27;20065;-58
2023/10/07 07:03:25;;;;;;;19.40;7.30;;;14.90;99.90;;;;;;4266232;27;20050;-59
2023/10/07 07:05:35;;;;;;;19.13;7.90;;;15.00;99.90;;;;;;4267703;27;20046;-57
2023/10/07 07:07:38;;;;;;;15.80;7.28;;;15.00;99.90;;;;;;4264395;27;20043;-56
2023/10/07 07:11:52;;;;;;;17.85;7.28;;;15.10;99.80;;;;;;4265005;27;20042;-57
2023/10/07 07:13:54;;;;;;;17.08;7.18;;;15.10;99.60;;;;;;4264962;27;20045;-57
2023/10/07 07:15:57;;;;;;;18.00;6.55;;;15.20;99.60;;;;;;4264755;27;20134;-56
2023/10/07 07:18:08;;;;;;;15.63;7.40;;;15.30;99.50;;;;;;4262962;27;20127;-56
2023/10/07 07:22:15;;;;;;;9.15;4.93;;;15.40;99.40;;;;;;4265369;27;20045;-57
2023/10/07 07:24:24;;;;;;;11.90;6.45;;;15.50;99.20;;;;;;4247089;27;20100;-61
2023/10/07 07:26:30;;;;;;;15.30;6.40;;;15.60;99.30;;;;;;4247413;27;20094;-62
2023/10/07 07:28:33;;;;;;;17.45;7.45;;;15.70;99.20;;;;;;4266031;27;20043;-57
2023/10/07 07:30:35;;;;;;;27.58;8.93;;;15.80;98.80;;;;;;4247361;27;20051;-55
2023/10/07 07:32:37;;;;;;;23.05;10.02;;;15.90;98.60;;;;;;4247397;27;20047;-56
2023/10/07 07:34:40;;;;;;;20.42;9.05;;;16.00;98.10;;;;;;4265191;27;20050;-56
2023/10/07 07:36:47;;;;;;;14.30;7.50;;;16.00;98.10;;;;;;4264823;27;20058;-55
2023/10/07 07:38:53;;;;;;;18.17;8.38;;;16.10;97.70;;;;;;4260844;27;20170;-58
2023/10/07 07:43:19;;;;;;;23.58;9.50;;;16.20;97.60;;;;;;4264481;27;20042;-57
2023/10/07 07:45:26;;;;;;;20.45;8.25;;;16.30;97.90;;;;;;4264471;27;20425;-57
2023/10/07 07:47:31;;;;;;;21.58;9.43;;;16.40;97.30;;;;;;4264776;27;20054;-61
2023/10/07 07:49:36;;;;;;;18.45;9.15;;;16.50;97.20;;;;;;4264787;27;20099;-57
2023/10/07 07:51:41;;;;;;;24.43;9.43;;;16.50;97.00;;;;;;4264445;27;20054;-57
2023/10/07 07:53:43;;;;;;;;;;;16.60;97.00;;;;;;4264960;27;20046;-57
2023/10/07 07:55:46;;;;;;;18.42;8.05;;;16.60;97.00;;;;;;4264803;27;20252;-57
2023/10/07 07:57:50;;;;;;;17.05;9.40;;;16.60;97.10;;;;;;4264497;27;20395;-57
2023/10/07 07:59:52;;;;;;;20.88;9.60;;;16.70;97.00;;;;;;4264341;27;20042;-57
2023/10/07 08:01:59;;;;;;;22.65;8.80;;;16.80;97.00;;;;;;4264599;27;20054;-56
2023/10/07 08:04:09;;;;;;;16.55;8.43;;;16.80;96.70;;;;;;4264444;27;20049;-57
2023/10/07 08:06:19;;;;;;;19.50;8.75;;;16.80;96.50;;;;;;4264481;27;20568;-57
2023/10/07 08:08:30;;;;;;;15.65;8.77;;;16.90;96.40;;;;;;4263861;27;20475;-56
2023/10/07 08:10:35;;;;;;;18.02;9.73;;;17.00;96.50;;;;;;4264097;27;20045;-56
2023/10/07 08:12:38;;;;;;;24.15;10.38;;;17.00;96.60;;;;;;4264628;27;20063;-57
2023/10/07 08:14:41;;;;;;;18.30;9.25;;;17.00;96.60;;;;;;4246163;28;20051;-57
2023/10/07 08:16:51;;;;;;;19.27;9.65;;;17.10;96.50;;;;;;4264211;27;20111;-57
2023/10/07 08:18:54;;;;;;;24.05;9.98;;;17.10;96.50;;;;;;4264352;27;20547;-56
2023/10/07 08:21:06;;;;;;;25.13;9.85;;;17.20;96.60;;;;;;4263951;27;20092;-58
2023/10/07 08:23:21;;;;;;;21.25;9.05;;;17.20;96.50;;;;;;4264049;27;20412;-56
2023/10/07 08:25:37;;;;;;;22.30;11.17;;;17.30;96.40;;;;;;4264138;27;20502;-59
2023/10/07 08:27:44;;;;;;;15.20;9.25;;;17.30;96.20;;;;;;4264437;27;20826;-56
2023/10/07 08:29:46;;;;;;;18.27;8.80;;;17.30;96.20;;;;;;4264177;27;20069;-57
2023/10/07 08:31:50;;;;;;;35.33;11.10;;;17.40;96.20;;;;;;4264204;27;20049;-55
2023/10/07 08:34:09;;;;;;;35.00;10.45;;;17.40;96.00;;;;;;4264169;27;20047;-54
2023/10/07 08:36:13;;;;;;;23.73;10.73;;;17.50;95.90;;;;;;4253045;27;20035;-57
2023/10/07 08:38:50;;;;;;;23.20;9.35;;;17.60;95.70;;;;;;4265274;27;20050;-59
2023/10/07 08:40:49;;;;;;;21.15;8.57;;;17.60;95.70;;;;;;4260159;27;20047;-60
2023/10/07 08:43:00;;;;;;;37.92;11.73;;;17.60;95.50;;;;;;4264770;27;20065;-57
2023/10/07 08:45:14;;;;;;;25.35;9.75;;;17.70;95.40;;;;;;4264141;27;20079;-57
2023/10/07 08:47:17;;;;;;;30.55;10.90;;;17.70;95.30;;;;;;4264378;27;20046;-61
2023/10/07 08:49:26;;;;;;;29.00;10.65;;;17.80;95.40;;;;;;4265306;27;20042;-58
2023/10/07 08:51:33;;;;;;;20.45;8.98;;;17.80;95.30;;;;;;4268184;27;20055;-58
2023/10/07 08:53:36;;;;;;;16.88;9.25;;;17.90;95.10;;;;;;4267941;27;20046;-57
2023/10/07 08:55:39;;;;;;;18.45;9.23;;;17.90;95.20;;;;;;4267230;27;20049;-57
2023/10/07 08:57:46;;;;;;;20.25;10.05;;;18.00;95.10;;;;;;4267355;27;20476;-57
2023/10/07 08:59:52;;;;;;;22.10;11.30;;;18.00;94.90;;;;;;4266977;27;20045;-57
2023/10/07 09:01:57;;;;;;;23.10;9.32;;;18.00;94.90;;;;;;4267936;27;20475;-57
2023/10/07 09:04:07;;;;;;;18.75;8.95;;;18.10;94.90;;;;;;4264968;27;20046;-58
2023/10/07 09:06:10;;;;;;;30.73;10.43;;;18.20;94.80;;;;;;4263086;27;20095;-56
2023/10/07 09:08:15;;;;;;;18.80;9.77;;;18.20;94.80;;;;;;4265350;27;20472;-55
2023/10/07 09:10:17;;;;;;;21.02;10.40;;;18.30;94.80;;;;;;4266731;27;20409;-56
2023/10/07 09:12:29;;;;;;;19.88;9.48;;;18.30;94.80;;;;;;4266803;27;20515;-55
2023/10/07 09:14:33;;;;;;;14.68;8.95;;;18.40;94.60;;;;;;4264166;27;20047;-56
2023/10/07 09:16:38;;;;;;;22.70;7.90;;;18.40;94.60;;;;;;4266621;27;20047;-55
2023/10/07 09:18:41;;;;;;;21.08;8.55;;;18.40;94.30;;;;;;4263231;27;20039;-54
2023/10/07 09:20:45;;;;;;;16.92;8.27;;;18.50;94.50;;;;;;4258434;27;20130;-55
2023/10/07 09:22:53;;;;;;;16.35;9.43;;;18.50;94.50;;;;;;4262488;27;20425;-55
2023/10/07 09:25:08;;;;;;;18.20;9.02;;;18.60;94.50;;;;;;4249790;27;20039;-56
2023/10/07 09:27:13;;;;;;;16.35;8.65;;;18.60;94.40;;;;;;4261502;27;20404;-56
2023/10/07 09:31:20;;;;;;;14.50;7.95;;;18.70;94.50;;;;;;4262968;27;20049;-55
2023/10/07 09:33:25;;;;;;;19.87;8.13;;;18.80;94.40;;;;;;4266596;27;20046;-55
2023/10/07 09:35:28;;;;;;;15.90;7.63;;;18.90;94.40;;;;;;4266226;27;20442;-56
2023/10/07 09:37:32;;;;;;;14.18;7.95;;;18.90;94.30;;;;;;4248074;27;20047;-55
2023/10/07 09:39:43;;;;;;;18.10;7.00;;;18.90;93.90;;;;;;4249175;27;20122;-55
2023/10/07 09:42:03;;;;;;;19.92;8.10;;;19.00;94.10;;;;;;4258178;27;20035;-54
2023/10/07 09:44:26;;;;;;;19.05;7.53;;;19.10;93.80;;;;;;4266349;27;20049;-54
2023/10/07 09:46:29;;;;;;;15.25;7.72;;;19.10;93.70;;;;;;4266461;27;20465;-56
2023/10/07 09:48:41;;;;;;;17.42;7.88;;;19.10;93.80;;;;;;4264548;27;20054;-56
2023/10/07 09:50:50;;;;;;;16.05;7.88;;;19.20;93.90;;;;;;4266555;27;20063;-59
2023/10/07 09:53:14;;;;;;;21.25;7.75;;;19.30;93.90;;;;;;4266518;27;20047;-56
2023/10/07 09:55:40;;;;;;;13.23;6.25;;;19.30;94.10;;;;;;4251089;27;20054;-58
2023/10/07 09:57:48;;;;;;;;;;;19.40;93.50;;;;;;4255809;27;20075;-58
2023/10/07 10:00:38;;;;;;;21.10;6.90;;;19.40;93.50;;;;;;4258419;27;20242;-58
2023/10/07 10:02:59;;;;;;;9.32;5.60;;;19.40;93.70;;;;;;4258121;27;20038;-58
2023/10/07 10:05:26;;;;;;;11.52;5.40;;;19.50;93.60;;;;;;4264846;27;20046;-58
2023/10/07 10:07:58;;;;;;;17.60;5.97;;;19.50;93.50;;;;;;4260975;27;20079;-57
2023/10/07 10:10:16;;;;;;;10.70;5.32;;;19.60;93.50;;;;;;4261207;27;20082;-58
2023/10/07 10:12:18;;;;;;;13.40;4.88;;;19.60;93.60;;;;;;4253020;27;20528;-58
2023/10/07 10:14:39;;;;;;;9.93;4.68;;;19.70;93.50;;;;;;4262657;27;20043;-58
2023/10/07 10:16:44;;;;;;;14.70;5.32;;;19.80;93.30;;;;;;4257618;27;20035;-55
2023/10/07 10:19:11;;;;;;;14.73;5.22;;;19.80;93.40;;;;;;4260216;27;20073;-59
2023/10/07 10:21:21;;;;;;;10.52;5.22;;;19.90;93.30;;;;;;4258952;27;20069;-61
2023/10/07 10:23:33;;;;;;;10.32;5.05;;;19.90;93.20;;;;;;4259966;27;20138;-59
2023/10/07 10:25:39;;;;;;;12.75;4.68;;;20.00;93.20;;;;;;4262862;27;20046;-58
2023/10/07 10:27:44;;;;;;;9.95;4.43;;;20.00;93.30;;;;;;4257405;27;20045;-59
2023/10/07 10:29:55;;;;;;;;;;;20.10;93.30;;;;;;4265878;27;20084;-58
2023/10/07 10:32:03;;;;;;;11.85;4.88;;;20.10;93.30;;;;;;4266242;27;19919;-59
2023/10/07 10:34:05;;;;;;;15.05;4.43;;;20.10;93.20;;;;;;4265762;27;20469;-57
2023/10/07 10:36:08;;;;;;;8.60;3.65;;;20.20;93.20;;;;;;4247450;27;20088;-62
2023/10/07 10:38:13;;;;;;;11.02;4.05;;;20.30;93.20;;;;;;4265961;27;20042;-59
2023/10/07 10:40:19;;;;;;;6.85;3.47;;;20.40;93.00;;;;;;4259802;27;20038;-58
2023/10/07 10:42:22;;;;;;;8.23;4.35;;;20.30;92.80;;;;;;4265191;27;20046;-57
2023/10/07 10:44:24;;;;;;;6.47;3.97;;;20.40;92.70;;;;;;4261719;27;20054;-57
2023/10/07 10:46:27;;;;;;;19.08;5.97;;;20.40;92.70;;;;;;4265527;27;20047;-60
2023/10/07 10:48:30;;;;;;;10.07;4.53;;;20.50;92.50;;;;;;4261437;27;20350;-58
2023/10/07 10:50:32;;;;;;;9.82;4.53;;;20.50;92.50;;;;;;4259530;27;20051;-58
2023/10/07 10:52:34;;;;;;;9.25;4.38;;;20.50;92.60;;;;;;4246958;27;20075;-58
2023/10/07 10:54:39;;;;;;;11.50;4.40;;;20.60;92.50;;;;;;4259740;27;20078;-58
2023/10/07 10:56:49;;;;;;;7.53;3.40;;;20.60;92.50;;;;;;4255275;27;20094;-58
2023/10/07 10:58:53;;;;;;;9.18;6.63;;;20.70;92.30;;;;;;4251686;27;20085;-58
2023/10/07 11:00:55;;;;;;;9.07;4.07;;;20.70;92.30;;;;;;4262663;27;20046;-58
2023/10/07 11:02:58;;;;;;;12.43;4.55;;;20.70;92.00;;;;;;4263641;27;20047;-58
2023/10/07 11:05:00;;;;;;;10.00;5.00;;;20.80;92.10;;;;;;4263907;27;20058;-55
2023/10/07 11:07:07;;;;;;;11.68;5.07;;;20.80;92.00;;;;;;4245803;27;20043;-58
2023/10/07 11:09:09;;;;;;;10.07;4.55;;;20.90;92.00;;;;;;4263650;27;20102;-61
2023/10/07 11:11:13;;;;;;;11.75;4.55;;;20.90;92.20;;;;;;4264044;27;20102;-57
2023/10/07 11:13:16;;;;;;;8.68;3.88;;;20.90;92.10;;;;;;4263784;27;20047;-60
2023/10/07 11:15:24;;;;;;;7.07;3.60;;;21.00;92.10;;;;;;4263433;27;20465;-58
2023/10/07 11:17:27;;;;;;;10.52;4.05;;;21.00;91.90;;;;;;4251511;27;20043;-58
2023/10/07 11:19:30;;;;;;;9.15;3.58;;;21.00;91.90;;;;;;4250740;27;20046;-58